createdAt,value
2023-01-25T00:00:39.575Z,11.67
2023-01-25T00:05:42.015Z,10.27
2023-01-25T00:10:44.266Z,11.10
2023-01-25T00:15:48.113Z,11.10
2023-01-25T00:20:50.051Z,12.00
2023-01-25T00:25:58.980Z,10.87
2023-01-25T00:31:03.289Z,11.10
2023-01-25T00:36:33.275Z,11.17
2023-01-25T00:41:35.473Z,10.67
2023-01-25T00:46:38.685Z,10.57
2023-01-25T00:51:40.623Z,11.57
2023-01-25T00:56:42.784Z,9.77
2023-01-25T01:01:46.544Z,10.17
2023-01-25T01:06:49.132Z,10.57
2023-01-25T01:11:51.911Z,11.00
2023-01-25T01:16:57.164Z,10.63
2023-01-25T01:22:00.210Z,9.20
2023-01-25T01:27:02.713Z,9.70
2023-01-25T01:32:07.008Z,9.83
2023-01-25T01:37:09.061Z,9.43
2023-01-25T01:42:11.410Z,9.57
2023-01-25T01:47:19.484Z,10.20
2023-01-25T01:52:26.348Z,9.97
2023-01-25T01:57:33.741Z,9.73
2023-01-25T02:02:37.525Z,10.73
2023-01-25T02:07:40.741Z,9.67
2023-01-25T02:12:43.827Z,9.77
2023-01-25T02:17:48.170Z,9.13
2023-01-25T02:23:00.492Z,10.00
2023-01-25T02:28:07.389Z,9.00
2023-01-25T02:33:09.794Z,9.30
2023-01-25T02:38:15.239Z,9.17
2023-01-25T02:43:19.130Z,8.67
2023-01-25T02:48:21.282Z,9.17
2023-01-25T02:53:23.613Z,8.97
2023-01-25T02:58:26.981Z,8.90
2023-01-25T03:03:29.518Z,9.60
2023-01-25T03:08:31.870Z,9.23
2023-01-25T03:13:36.499Z,8.43
2023-01-25T03:18:39.806Z,9.20
2023-01-25T03:23:42.565Z,9.60
2023-01-25T03:28:46.092Z,9.27
2023-01-25T03:33:48.755Z,9.83
2023-01-25T03:38:50.519Z,11.13
2023-01-25T03:43:54.341Z,10.33
2023-01-25T03:48:56.347Z,9.47
2023-01-25T03:53:58.219Z,10.17
2023-01-25T03:59:01.630Z,10.23
2023-01-25T04:04:03.818Z,10.07
2023-01-25T04:09:06.566Z,9.90
2023-01-25T04:14:11.839Z,10.83
2023-01-25T04:19:14.022Z,10.43
2023-01-25T04:24:16.579Z,10.17
2023-01-25T04:29:26.194Z,9.97
2023-01-25T04:34:37.509Z,10.30
2023-01-25T04:39:39.826Z,8.90
2023-01-25T04:44:43.665Z,9.67
2023-01-25T04:49:45.590Z,8.87
2023-01-25T04:54:47.968Z,9.67
2023-01-25T04:59:51.741Z,9.30
2023-01-25T05:04:54.006Z,9.33
2023-01-25T05:09:56.020Z,9.83
2023-01-25T05:14:59.537Z,11.30
2023-01-25T05:20:01.794Z,10.20
2023-01-25T05:25:04.408Z,10.80
2023-01-25T05:30:09.473Z,10.47
2023-01-25T05:35:11.811Z,11.33
2023-01-25T05:40:14.896Z,10.13
2023-01-25T05:45:18.540Z,10.00
2023-01-25T05:50:20.887Z,10.60
2023-01-25T05:55:23.170Z,9.73
2023-01-25T06:00:26.697Z,10.57
2023-01-25T06:05:29.123Z,10.10
2023-01-25T06:10:31.556Z,10.17
2023-01-25T06:15:35.474Z,10.17
2023-01-25T06:20:37.531Z,10.63
2023-01-25T06:25:39.945Z,10.80
2023-01-25T06:30:43.295Z,11.30
2023-01-25T06:35:45.516Z,11.40
2023-01-25T06:40:47.581Z,11.53
2023-01-25T06:45:50.820Z,10.97
2023-01-25T06:50:56.436Z,12.40
2023-01-25T06:56:00.243Z,12.57
2023-01-25T07:01:06.031Z,12.50
2023-01-25T07:06:09.656Z,12.23
2023-01-25T07:11:14.142Z,11.77
2023-01-25T07:16:19.725Z,11.83
2023-01-25T07:21:24.627Z,11.47
2023-01-25T07:26:27.581Z,11.13
2023-01-25T07:31:31.129Z,11.53
2023-01-25T07:36:33.221Z,13.07
2023-01-25T07:41:35.738Z,12.90
2023-01-25T07:46:39.675Z,13.40
2023-01-25T07:51:41.959Z,12.50
2023-01-25T07:56:44.935Z,12.73
2023-01-25T08:01:48.255Z,12.20
2023-01-25T08:06:50.305Z,12.80
2023-01-25T08:11:53.765Z,12.10
2023-01-25T08:16:57.252Z,12.87
2023-01-25T08:21:59.437Z,12.43
2023-01-25T08:27:01.463Z,12.00
2023-01-25T08:32:06.425Z,12.07
2023-01-25T08:37:08.805Z,13.43
2023-01-25T08:42:11.112Z,12.77
2023-01-25T08:47:14.679Z,11.97
2023-01-25T08:52:16.725Z,12.43
2023-01-25T08:57:19.135Z,12.13
2023-01-25T09:02:22.745Z,12.40
2023-01-25T09:07:24.999Z,12.37
2023-01-25T09:12:27.245Z,10.17
2023-01-25T09:17:31.181Z,10.10
2023-01-25T09:22:33.635Z,11.57
2023-01-25T09:27:35.604Z,10.90
2023-01-25T09:32:40.457Z,11.17
2023-01-25T09:37:42.684Z,10.50
2023-01-25T09:43:01.601Z,10.43
2023-01-25T09:48:21.349Z,11.30
2023-01-25T09:53:31.948Z,11.03
2023-01-25T09:58:37.892Z,10.30
2023-01-25T10:03:50.193Z,10.53
2023-01-25T10:08:59.656Z,11.80
2023-01-25T10:14:02.248Z,9.63
2023-01-25T10:19:19.245Z,10.60
2023-01-25T10:24:32.818Z,10.37
2023-01-25T10:29:37.981Z,9.97
2023-01-25T10:34:55.880Z,8.20
2023-01-25T10:40:04.331Z,7.20
2023-01-25T10:45:13.809Z,10.00
2023-01-25T10:50:51.640Z,10.23
2023-01-25T10:56:00.848Z,9.47
2023-01-25T11:01:04.333Z,9.03
2023-01-25T11:06:09.675Z,8.43
2023-01-25T11:11:27.274Z,8.40
2023-01-25T11:16:35.683Z,8.80
2023-01-25T11:21:52.164Z,8.10
2023-01-25T11:27:14.019Z,7.20
2023-01-25T11:32:21.849Z,7.30
2023-01-25T11:37:42.340Z,7.10
2023-01-25T11:42:58.522Z,7.20
2023-01-25T11:48:15.825Z,6.53
2023-01-25T11:53:35.303Z,7.77
2023-01-25T11:58:59.020Z,7.60
2023-01-25T12:04:48.735Z,7.03
2023-01-25T12:10:16.223Z,7.50
2023-01-25T12:15:30.547Z,6.80
2023-01-25T12:21:01.593Z,5.83
2023-01-25T12:26:17.490Z,6.67
2023-01-25T12:31:24.186Z,6.47
2023-01-25T12:36:29.851Z,6.03
2023-01-25T12:41:41.945Z,6.77
2023-01-25T12:46:48.482Z,6.40
2023-01-25T12:51:53.186Z,6.43
2023-01-25T12:57:02.655Z,5.83
2023-01-25T13:02:20.521Z,6.67
2023-01-25T13:07:29.538Z,5.53
2023-01-25T13:12:52.449Z,5.80
2023-01-25T13:17:54.742Z,5.87
2023-01-25T13:22:59.896Z,5.80
2023-01-25T13:28:39.004Z,6.43
2023-01-25T13:33:42.731Z,10.73
2023-01-25T13:38:44.823Z,6.97
2023-01-25T13:43:55.991Z,5.63
2023-01-25T13:49:05.451Z,6.00
2023-01-25T13:54:07.511Z,6.27
2023-01-25T13:59:25.692Z,6.40
2023-01-25T14:04:30.680Z,6.20
2023-01-25T14:09:33.233Z,6.07
2023-01-25T14:14:37.059Z,6.17
2023-01-25T14:19:41.335Z,5.60
2023-01-25T14:24:43.907Z,5.87
2023-01-25T14:29:50.184Z,5.73
2023-01-25T14:34:54.012Z,6.50
2023-01-25T14:39:56.067Z,5.73
2023-01-25T14:44:58.409Z,6.20
2023-01-25T14:50:35.084Z,7.20
2023-01-25T14:55:38.639Z,6.30
2023-01-25T15:00:41.330Z,6.30
2023-01-25T15:05:47.759Z,6.33
2023-01-25T15:10:54.462Z,6.60
2023-01-25T15:15:58.402Z,6.23
2023-01-25T15:21:02.046Z,6.13
2023-01-25T15:26:13.174Z,6.40
2023-01-25T15:31:19.501Z,6.93
2023-01-25T15:36:23.025Z,6.47
2023-01-25T15:41:25.243Z,7.73
2023-01-25T15:46:29.638Z,6.80
2023-01-25T15:51:35.708Z,6.70
2023-01-25T15:56:39.007Z,6.77
2023-01-25T16:01:42.016Z,6.30
2023-01-25T16:06:47.373Z,6.80
2023-01-25T16:11:52.329Z,7.27
2023-01-25T16:16:55.837Z,6.43
2023-01-25T16:22:00.372Z,6.60
2023-01-25T16:27:03.242Z,7.67
2023-01-25T16:32:05.822Z,7.33
2023-01-25T16:37:13.070Z,6.90
2023-01-25T16:42:15.938Z,6.90
2023-01-25T16:47:23.393Z,6.70
2023-01-25T16:52:28.632Z,6.80
2023-01-25T16:57:31.645Z,7.33
2023-01-25T17:02:34.019Z,7.40
2023-01-25T17:07:38.958Z,7.63
2023-01-25T17:12:41.839Z,6.93
2023-01-25T17:17:45.329Z,7.30
2023-01-25T17:22:51.713Z,7.13
2023-01-25T17:27:54.699Z,7.37
2023-01-25T17:33:00.142Z,15.97
2023-01-25T17:38:04.830Z,9.07
2023-01-25T17:43:08.976Z,8.03
2023-01-25T17:48:13.003Z,9.00
2023-01-25T17:53:17.584Z,8.37
2023-01-25T17:58:22.658Z,8.07
2023-01-25T18:03:26.134Z,7.23
2023-01-25T18:08:32.257Z,8.37
2023-01-25T18:13:36.305Z,8.23
2023-01-25T18:18:40.047Z,7.50
2023-01-25T18:23:50.280Z,7.67
2023-01-25T18:28:58.223Z,8.40
2023-01-25T18:34:02.413Z,8.03
2023-01-25T18:39:09.369Z,8.57
2023-01-25T18:44:11.991Z,7.80
2023-01-25T18:49:15.979Z,8.60
2023-01-25T18:54:23.670Z,8.30
2023-01-25T18:59:27.186Z,9.03
2023-01-25T19:04:30.399Z,10.67
2023-01-25T19:09:35.230Z,9.90
2023-01-25T19:14:41.153Z,9.97
2023-01-25T19:19:45.044Z,10.37
2023-01-25T19:24:52.081Z,9.40
2023-01-25T19:29:56.242Z,10.90
2023-01-25T19:35:00.484Z,12.00
2023-01-25T19:40:06.472Z,11.17
2023-01-25T19:45:13.918Z,10.57
2023-01-25T19:50:17.914Z,11.27
2023-01-25T19:55:25.778Z,11.27
2023-01-25T20:00:31.441Z,11.17
2023-01-25T20:06:08.325Z,11.50
2023-01-25T20:11:18.632Z,12.37
2023-01-25T20:16:51.299Z,12.87
2023-01-25T20:21:54.584Z,11.30
2023-01-25T20:27:02.253Z,13.90
2023-01-25T20:32:09.655Z,12.40
2023-01-25T20:37:14.833Z,11.97
2023-01-25T20:42:20.009Z,11.00
2023-01-25T20:47:24.609Z,11.47
2023-01-25T20:52:34.128Z,11.23
2023-01-25T20:57:39.867Z,13.20
2023-01-25T21:02:44.675Z,11.27
2023-01-25T21:07:49.638Z,10.40
2023-01-25T21:12:56.744Z,10.87
2023-01-25T21:18:02.420Z,10.57
2023-01-25T21:23:06.540Z,9.70
2023-01-25T21:28:13.124Z,10.90
2023-01-25T21:33:16.378Z,10.97
2023-01-25T21:38:22.578Z,11.37
2023-01-25T21:43:27.051Z,10.83
2023-01-25T21:48:46.887Z,10.30
2023-01-25T21:53:51.659Z,11.37
2023-01-25T21:58:55.901Z,11.47
2023-01-25T22:03:58.521Z,11.97
2023-01-25T22:09:00.600Z,11.67
2023-01-25T22:14:04.588Z,11.60
2023-01-25T22:19:06.784Z,11.43
2023-01-25T22:24:11.646Z,12.17
2023-01-25T22:29:15.420Z,12.43
2023-01-25T22:34:17.737Z,13.20
2023-01-25T22:39:20.066Z,13.77
2023-01-25T22:44:23.463Z,11.73
2023-01-25T22:49:25.687Z,10.53
2023-01-25T22:54:27.855Z,11.27
2023-01-25T22:59:32.386Z,10.50
2023-01-25T23:04:34.698Z,9.73
2023-01-25T23:09:36.782Z,10.50
2023-01-25T23:14:51.509Z,10.43
2023-01-25T23:19:53.763Z,10.10
2023-01-25T23:24:56.014Z,9.87
2023-01-25T23:30:00.125Z,10.10
2023-01-25T23:35:02.229Z,10.63
2023-01-25T23:40:04.361Z,10.30
2023-01-25T23:45:09.769Z,10.43
2023-01-25T23:50:13.375Z,10.43
2023-01-25T23:55:15.997Z,9.30
